createdAt,value
2022-12-03T00:00:12.778Z,86.32
2022-12-03T00:02:40.905Z,86.84
2022-12-03T00:05:09.212Z,88.24
2022-12-03T00:07:38.380Z,86.55
2022-12-03T00:10:07.748Z,85.19
2022-12-03T00:12:35.466Z,86.57
2022-12-03T00:15:03.270Z,87.06
2022-12-03T00:17:30.976Z,88.72
2022-12-03T00:19:58.634Z,88.40
2022-12-03T00:22:26.405Z,85.55
2022-12-03T00:24:55.902Z,86.14
2022-12-03T00:27:23.778Z,88.00
2022-12-03T00:29:51.432Z,87.64
2022-12-03T00:32:19.203Z,86.82
2022-12-03T00:34:46.942Z,88.86
2022-12-03T00:37:14.740Z,89.06
2022-12-03T00:39:42.451Z,88.77
2022-12-03T00:42:11.557Z,88.88
2022-12-03T00:44:39.277Z,87.90
2022-12-03T00:47:07.108Z,89.28
2022-12-03T00:49:34.857Z,89.07
2022-12-03T00:52:02.613Z,87.63
2022-12-03T00:54:32.245Z,86.64
2022-12-03T00:57:00.146Z,88.26
2022-12-03T00:59:29.200Z,87.04
2022-12-03T01:01:57.109Z,89.24
2022-12-03T01:04:24.951Z,88.30
2022-12-03T01:06:52.683Z,87.97
2022-12-03T01:09:20.446Z,86.89
2022-12-03T01:11:48.187Z,87.62
2022-12-03T01:14:18.624Z,85.83
2022-12-03T01:16:48.537Z,85.90
2022-12-03T01:19:17.694Z,86.98
2022-12-03T01:21:46.699Z,86.66
2022-12-03T01:24:14.739Z,89.39
2022-12-03T01:26:42.832Z,88.43
2022-12-03T01:29:10.546Z,88.43
2022-12-03T01:31:55.541Z,87.71
2022-12-03T01:34:24.902Z,87.21
2022-12-03T01:36:53.524Z,87.25
2022-12-03T01:39:21.508Z,89.60
2022-12-03T01:41:51.337Z,89.39
2022-12-03T01:44:22.979Z,88.25
2022-12-03T01:46:52.911Z,87.37
2022-12-03T01:49:26.353Z,89.91
2022-12-03T01:51:55.738Z,89.50
2022-12-03T01:54:27.661Z,88.88
2022-12-03T01:56:56.303Z,89.31
2022-12-03T01:59:34.275Z,89.70
2022-12-03T02:02:09.729Z,90.97
2022-12-03T02:04:38.937Z,89.16
2022-12-03T02:07:20.983Z,88.77
2022-12-03T02:09:48.844Z,88.85
2022-12-03T02:12:19.185Z,90.46
2022-12-03T02:14:47.337Z,90.94
2022-12-03T02:17:15.197Z,90.56
2022-12-03T02:19:44.487Z,88.50
2022-12-03T02:22:22.720Z,89.53
2022-12-03T02:24:56.629Z,89.17
2022-12-03T02:27:25.776Z,90.03
2022-12-03T02:29:53.520Z,87.04
2022-12-03T02:32:23.415Z,88.35
2022-12-03T02:34:52.237Z,88.30
2022-12-03T02:37:24.022Z,87.98
2022-12-03T02:39:54.815Z,86.96
2022-12-03T02:42:38.297Z,85.13
2022-12-03T02:45:11.202Z,87.98
2022-12-03T02:47:42.476Z,87.50
2022-12-03T02:50:12.491Z,87.74
2022-12-03T02:52:41.308Z,85.85
2022-12-03T02:55:10.898Z,88.58
2022-12-03T02:57:40.242Z,87.88
2022-12-03T03:00:11.973Z,88.10
2022-12-03T03:02:42.539Z,88.13
2022-12-03T03:05:12.490Z,86.71
2022-12-03T03:07:41.055Z,86.57
2022-12-03T03:10:12.555Z,86.92
2022-12-03T03:12:40.646Z,87.05
2022-12-03T03:15:12.173Z,87.37
2022-12-03T03:17:42.076Z,86.78
2022-12-03T03:20:11.354Z,86.59
2022-12-03T03:22:41.726Z,87.51
2022-12-03T03:25:11.918Z,87.04
2022-12-03T03:27:40.917Z,89.15
2022-12-03T03:30:11.699Z,89.50
2022-12-03T03:32:41.197Z,87.70
2022-12-03T03:35:10.399Z,89.20
2022-12-03T03:37:38.387Z,89.19
2022-12-03T03:40:07.465Z,87.93
2022-12-03T03:42:36.033Z,89.60
2022-12-03T03:45:03.829Z,88.28
2022-12-03T03:47:33.426Z,89.52
2022-12-03T03:50:01.596Z,88.86
2022-12-03T03:52:30.262Z,89.36
2022-12-03T03:54:58.151Z,88.10
2022-12-03T03:57:25.929Z,86.98
2022-12-03T03:59:53.962Z,86.58
2022-12-03T04:02:25.183Z,88.03
2022-12-03T04:04:54.843Z,88.58
2022-12-03T04:07:22.777Z,86.40
2022-12-03T04:09:50.660Z,85.32
2022-12-03T04:12:35.944Z,88.77
2022-12-03T04:15:03.776Z,87.48
2022-12-03T04:17:31.494Z,88.83
2022-12-03T04:20:00.557Z,86.75
2022-12-03T04:22:42.702Z,88.44
2022-12-03T04:25:28.848Z,88.23
2022-12-03T04:28:14.088Z,87.52
2022-12-03T04:30:41.952Z,87.93
2022-12-03T04:33:35.434Z,86.41
2022-12-03T04:36:05.030Z,86.57
2022-12-03T04:38:32.768Z,86.84
2022-12-03T04:41:04.348Z,86.39
2022-12-03T04:43:33.427Z,88.06
2022-12-03T04:46:02.354Z,88.03
2022-12-03T04:48:30.153Z,88.80
2022-12-03T04:50:57.923Z,86.40
2022-12-03T04:53:27.095Z,84.96
2022-12-03T04:55:54.840Z,87.16
2022-12-03T04:58:22.633Z,87.91
2022-12-03T05:00:50.441Z,88.50
2022-12-03T05:03:18.175Z,88.23
2022-12-03T05:05:45.848Z,88.74
2022-12-03T05:08:13.625Z,88.78
2022-12-03T05:10:42.866Z,88.53
2022-12-03T05:13:10.634Z,88.84
2022-12-03T05:15:38.380Z,90.55
2022-12-03T05:18:06.571Z,90.01
2022-12-03T05:20:47.137Z,90.35
2022-12-03T05:23:20.740Z,89.19
2022-12-03T05:25:49.933Z,89.25
2022-12-03T05:28:17.879Z,89.85
2022-12-03T05:30:45.721Z,88.98
2022-12-03T05:33:13.396Z,88.44
2022-12-03T05:35:41.086Z,87.20
2022-12-03T05:38:08.851Z,89.83
2022-12-03T05:40:36.629Z,90.20
2022-12-03T05:43:05.011Z,88.92
2022-12-03T05:45:34.754Z,89.76
2022-12-03T05:48:03.554Z,88.16
2022-12-03T05:50:33.395Z,88.65
2022-12-03T05:53:01.499Z,89.55
2022-12-03T05:55:29.477Z,89.65
2022-12-03T05:57:57.481Z,89.86
2022-12-03T06:00:28.754Z,89.45
2022-12-03T06:02:57.408Z,89.85
2022-12-03T06:05:25.807Z,89.36
2022-12-03T06:07:54.266Z,88.26
2022-12-03T06:10:24.099Z,87.08
2022-12-03T06:12:52.641Z,89.33
2022-12-03T06:15:21.299Z,88.52
2022-12-03T06:17:50.487Z,88.46
2022-12-03T06:20:20.223Z,88.98
2022-12-03T06:22:48.558Z,88.73
2022-12-03T06:25:17.327Z,90.28
2022-12-03T06:27:45.513Z,89.73
2022-12-03T06:30:14.591Z,87.33
2022-12-03T06:32:42.400Z,86.72
2022-12-03T06:35:12.632Z,87.40
2022-12-03T06:37:40.608Z,89.09
2022-12-03T06:40:09.559Z,88.17
2022-12-03T06:42:37.251Z,86.17
2022-12-03T06:45:05.700Z,87.88
2022-12-03T06:47:33.475Z,86.31
2022-12-03T06:50:01.286Z,87.88
2022-12-03T06:52:30.386Z,86.71
2022-12-03T06:54:58.132Z,88.59
2022-12-03T06:57:25.783Z,88.54
2022-12-03T06:59:53.699Z,85.39
2022-12-03T07:02:21.544Z,85.77
2022-12-03T07:04:49.377Z,86.95
2022-12-03T07:07:17.044Z,87.56
2022-12-03T07:09:46.259Z,87.81
2022-12-03T07:12:13.937Z,87.90
2022-12-03T07:14:41.656Z,84.91
2022-12-03T07:17:09.394Z,86.46
2022-12-03T07:19:37.129Z,87.87
2022-12-03T07:22:04.856Z,86.36
2022-12-03T07:24:33.137Z,87.62
2022-12-03T07:27:02.249Z,88.34
2022-12-03T07:29:30.028Z,88.62
2022-12-03T07:31:57.809Z,88.00
2022-12-03T07:34:25.583Z,88.32
2022-12-03T07:36:53.347Z,87.85
2022-12-03T07:39:21.112Z,88.20
2022-12-03T07:41:48.873Z,89.08
2022-12-03T07:44:17.963Z,86.47
2022-12-03T07:46:45.864Z,89.45
2022-12-03T07:49:13.710Z,87.68
2022-12-03T07:51:41.408Z,87.01
2022-12-03T07:54:09.411Z,87.33
2022-12-03T07:56:37.199Z,85.10
2022-12-03T07:59:04.942Z,82.93
2022-12-03T08:01:34.289Z,83.21
2022-12-03T08:04:02.139Z,85.12
2022-12-03T08:06:29.816Z,86.50
2022-12-03T08:08:57.547Z,86.47
2022-12-03T08:11:25.262Z,86.87
2022-12-03T08:13:53.019Z,84.71
2022-12-03T08:16:22.791Z,85.88
2022-12-03T08:18:52.521Z,86.34
2022-12-03T08:21:23.266Z,85.52
2022-12-03T08:23:51.059Z,86.17
2022-12-03T08:26:22.936Z,85.32
2022-12-03T08:28:51.057Z,83.20
2022-12-03T08:31:21.193Z,84.44
2022-12-03T08:33:52.760Z,84.83
2022-12-03T08:36:24.094Z,86.12
2022-12-03T08:38:55.763Z,87.72
2022-12-03T08:41:37.992Z,85.68
2022-12-03T08:44:16.392Z,85.93
2022-12-03T08:46:44.221Z,85.92
2022-12-03T08:49:13.402Z,85.01
2022-12-03T08:51:41.108Z,86.24
2022-12-03T08:54:15.523Z,85.99
2022-12-03T08:56:43.912Z,83.36
2022-12-03T08:59:25.196Z,83.32
2022-12-03T09:01:53.556Z,84.61
2022-12-03T09:04:37.227Z,85.22
2022-12-03T09:07:04.998Z,86.17
2022-12-03T09:09:33.673Z,85.02
2022-12-03T09:12:02.082Z,85.04
2022-12-03T09:14:29.813Z,86.13
2022-12-03T09:16:57.611Z,85.47
2022-12-03T09:19:30.893Z,85.63
2022-12-03T09:21:58.688Z,85.23
2022-12-03T09:24:26.342Z,84.61
2022-12-03T09:26:54.091Z,84.47
2022-12-03T09:29:21.848Z,83.49
2022-12-03T09:31:49.743Z,82.40
2022-12-03T09:34:17.512Z,81.40
2022-12-03T09:36:46.570Z,83.02
2022-12-03T09:39:14.275Z,83.38
2022-12-03T09:41:41.983Z,83.17
2022-12-03T09:44:17.209Z,82.17
2022-12-03T09:46:47.923Z,83.33
2022-12-03T09:49:19.687Z,82.28
2022-12-03T09:51:48.967Z,82.19
2022-12-03T09:54:23.937Z,82.84
2022-12-03T09:56:52.280Z,82.31
2022-12-03T09:59:20.486Z,81.16
2022-12-03T10:01:48.643Z,81.11
2022-12-03T10:04:16.615Z,82.22
2022-12-03T10:06:46.271Z,79.32
2022-12-03T10:09:20.860Z,82.46
2022-12-03T10:11:48.667Z,82.46
2022-12-03T10:14:19.894Z,80.38
2022-12-03T10:16:47.764Z,80.74
2022-12-03T10:19:20.632Z,79.96
2022-12-03T10:21:48.443Z,78.67
2022-12-03T10:24:25.468Z,82.13
2022-12-03T10:26:55.046Z,82.60
2022-12-03T10:29:29.921Z,81.78
2022-12-03T10:32:01.783Z,83.33
2022-12-03T10:34:31.797Z,83.54
2022-12-03T10:37:11.390Z,81.54
2022-12-03T10:40:00.711Z,80.78
2022-12-03T10:42:30.149Z,80.59
2022-12-03T10:45:22.554Z,80.59
2022-12-03T10:48:12.095Z,79.59
2022-12-03T10:50:48.375Z,79.08
2022-12-03T10:53:16.849Z,79.90
2022-12-03T10:55:47.566Z,80.23
2022-12-03T10:58:22.331Z,80.55
2022-12-03T11:00:51.363Z,81.07
2022-12-03T11:03:21.724Z,81.50
2022-12-03T11:05:50.167Z,80.70
2022-12-03T11:08:23.213Z,81.11
2022-12-03T11:11:00.467Z,81.52
2022-12-03T11:13:52.843Z,82.11
2022-12-03T11:17:08.648Z,81.85
2022-12-03T11:19:45.334Z,82.43
2022-12-03T11:22:27.557Z,79.93
2022-12-03T11:25:45.817Z,80.54
2022-12-03T11:28:54.625Z,82.27
2022-12-03T11:31:39.999Z,78.85
2022-12-03T11:34:50.306Z,78.64
2022-12-03T11:37:26.254Z,80.86
2022-12-03T11:40:31.489Z,81.15
2022-12-03T11:43:02.530Z,80.49
2022-12-03T11:45:36.241Z,80.32
2022-12-03T11:48:14.001Z,79.59
2022-12-03T11:50:43.635Z,81.45
2022-12-03T11:53:18.165Z,79.76
2022-12-03T11:55:48.768Z,81.18
2022-12-03T11:58:19.146Z,81.37
2022-12-03T12:00:52.991Z,80.13
2022-12-03T12:03:24.779Z,81.26
2022-12-03T12:06:07.960Z,81.85
2022-12-03T12:08:37.132Z,79.49
2022-12-03T12:11:16.845Z,81.63
2022-12-03T12:13:57.976Z,80.72
2022-12-03T12:16:47.516Z,80.15
2022-12-03T12:19:49.745Z,79.91
2022-12-03T12:22:30.334Z,80.60
2022-12-03T12:24:58.975Z,82.23
2022-12-03T12:27:35.839Z,81.11
2022-12-03T12:30:06.629Z,81.63
2022-12-03T12:32:39.850Z,81.69
2022-12-03T12:35:16.635Z,81.17
2022-12-03T12:37:53.514Z,78.36
2022-12-03T12:40:28.556Z,80.99
2022-12-03T12:42:58.298Z,81.33
2022-12-03T12:45:27.791Z,79.91
2022-12-03T12:48:06.524Z,79.68
2022-12-03T12:50:34.748Z,79.37
2022-12-03T12:53:09.600Z,80.62
2022-12-03T12:55:37.920Z,79.05
2022-12-03T12:58:12.438Z,77.73
2022-12-03T13:00:40.228Z,77.75
2022-12-03T13:03:11.431Z,78.94
2022-12-03T13:05:41.767Z,79.77
2022-12-03T13:08:21.584Z,77.53
2022-12-03T13:10:50.376Z,79.76
2022-12-03T13:13:23.203Z,80.08
2022-12-03T13:15:59.794Z,80.83
2022-12-03T13:18:34.164Z,80.18
2022-12-03T13:21:13.958Z,81.02
2022-12-03T13:23:41.956Z,81.11
2022-12-03T13:26:32.898Z,81.15
2022-12-03T13:29:12.720Z,81.44
2022-12-03T13:31:43.724Z,80.28
2022-12-03T13:34:17.615Z,80.35
2022-12-03T13:36:52.013Z,79.48
2022-12-03T13:39:28.002Z,80.41
2022-12-03T13:42:13.858Z,81.11
2022-12-03T13:44:46.176Z,81.61
2022-12-03T13:47:17.094Z,81.64
2022-12-03T13:49:52.125Z,81.20
2022-12-03T13:52:22.395Z,79.83
2022-12-03T13:54:52.501Z,80.33
2022-12-03T13:57:20.348Z,80.40
2022-12-03T13:59:48.373Z,79.76
2022-12-03T14:02:16.300Z,78.26
2022-12-03T14:04:44.109Z,78.72
2022-12-03T14:07:13.255Z,78.46
2022-12-03T14:09:41.025Z,79.46
2022-12-03T14:12:27.022Z,81.77
2022-12-03T14:14:55.049Z,83.03
2022-12-03T14:17:22.719Z,82.10
2022-12-03T14:19:50.438Z,80.66
2022-12-03T14:22:23.191Z,81.79
2022-12-03T14:24:50.910Z,82.39
2022-12-03T14:27:18.652Z,80.40
2022-12-03T14:29:46.483Z,79.71
2022-12-03T14:32:14.248Z,81.00
2022-12-03T14:34:42.003Z,79.97
2022-12-03T14:37:09.679Z,81.13
2022-12-03T14:39:38.776Z,79.50
2022-12-03T14:42:15.438Z,81.05
2022-12-03T14:44:44.384Z,81.31
2022-12-03T14:47:13.126Z,82.25
2022-12-03T14:49:41.431Z,82.71
2022-12-03T14:52:12.255Z,81.59
2022-12-03T14:54:43.180Z,82.63
2022-12-03T14:57:12.617Z,81.15
2022-12-03T14:59:40.579Z,81.18
2022-12-03T15:02:08.573Z,80.78
2022-12-03T15:04:36.369Z,82.42
2022-12-03T15:07:04.790Z,81.83
2022-12-03T15:09:32.550Z,82.24
2022-12-03T15:12:01.707Z,81.33
2022-12-03T15:14:29.531Z,80.26
2022-12-03T15:16:57.456Z,80.04
2022-12-03T15:19:25.240Z,80.02
2022-12-03T15:21:52.958Z,82.19
2022-12-03T15:24:20.699Z,82.43
2022-12-03T15:26:49.299Z,82.67
2022-12-03T15:29:18.447Z,81.83
2022-12-03T15:31:46.194Z,83.40
2022-12-03T15:34:18.869Z,84.31
2022-12-03T15:36:50.107Z,82.31
2022-12-03T15:39:17.860Z,83.73
2022-12-03T15:41:45.735Z,81.74
2022-12-03T15:44:13.573Z,81.42
2022-12-03T15:46:42.750Z,82.75
2022-12-03T15:49:10.591Z,82.33
2022-12-03T15:51:38.334Z,83.20
2022-12-03T15:54:21.378Z,83.40
2022-12-03T15:56:54.034Z,82.21
2022-12-03T15:59:24.627Z,81.67
2022-12-03T16:01:53.784Z,83.03
2022-12-03T16:04:21.811Z,81.31
2022-12-03T16:06:49.554Z,82.61
2022-12-03T16:09:19.985Z,80.95
2022-12-03T16:11:50.144Z,82.04
2022-12-03T16:14:20.005Z,82.47
2022-12-03T16:16:48.045Z,83.61
2022-12-03T16:19:17.385Z,81.85
2022-12-03T16:21:45.162Z,79.69
2022-12-03T16:24:13.088Z,80.25
2022-12-03T16:26:41.017Z,82.10
2022-12-03T16:29:08.898Z,80.67
2022-12-03T16:31:36.870Z,80.97
2022-12-03T16:34:04.794Z,81.83
2022-12-03T16:36:34.057Z,84.16
2022-12-03T16:39:02.218Z,84.47
2022-12-03T16:41:30.124Z,84.95
2022-12-03T16:43:58.092Z,81.00
2022-12-03T16:46:26.844Z,82.20
2022-12-03T16:48:56.507Z,82.75
2022-12-03T16:51:24.881Z,84.31
2022-12-03T16:53:54.470Z,82.64
2022-12-03T16:56:22.451Z,83.15
2022-12-03T16:58:50.202Z,82.75
2022-12-03T17:01:18.455Z,83.07
2022-12-03T17:03:46.287Z,83.22
2022-12-03T17:06:14.270Z,85.33
2022-12-03T17:08:47.279Z,84.44
2022-12-03T17:11:18.796Z,83.05
2022-12-03T17:13:46.616Z,80.65
2022-12-03T17:16:14.468Z,81.44
2022-12-03T17:18:42.646Z,80.95
2022-12-03T17:21:10.521Z,82.36
2022-12-03T17:23:38.263Z,81.74
2022-12-03T17:26:06.307Z,82.38
2022-12-03T17:28:35.685Z,82.58
2022-12-03T17:31:03.731Z,82.95
2022-12-03T17:33:31.490Z,82.91
2022-12-03T17:35:59.534Z,82.82
2022-12-03T17:38:27.478Z,82.72
2022-12-03T17:40:55.348Z,82.06
2022-12-03T17:43:23.193Z,81.45
2022-12-03T17:45:52.510Z,82.88
2022-12-03T17:48:20.311Z,83.91
2022-12-03T17:50:48.608Z,83.91
2022-12-03T17:53:16.315Z,84.58
2022-12-03T17:55:45.194Z,82.80
2022-12-03T17:58:13.099Z,84.07
2022-12-03T18:00:41.351Z,85.48
2022-12-03T18:03:10.702Z,83.34
2022-12-03T18:05:38.553Z,83.87
2022-12-03T18:08:07.133Z,84.26
2022-12-03T18:10:35.032Z,84.30
2022-12-03T18:13:02.852Z,82.61
2022-12-03T18:15:31.087Z,82.41
2022-12-03T18:17:58.781Z,83.17
2022-12-03T18:20:28.031Z,84.03
2022-12-03T18:22:55.759Z,83.18
2022-12-03T18:25:23.452Z,83.30
2022-12-03T18:27:51.164Z,83.27
2022-12-03T18:30:19.126Z,81.55
2022-12-03T18:32:47.789Z,83.21
2022-12-03T18:35:15.718Z,85.12
2022-12-03T18:37:44.953Z,84.81
2022-12-03T18:40:19.368Z,86.46
2022-12-03T18:42:47.424Z,86.68
2022-12-03T18:45:16.685Z,85.18
2022-12-03T18:47:44.607Z,85.68
2022-12-03T18:50:13.255Z,84.89
2022-12-03T18:52:41.095Z,86.14
2022-12-03T18:55:18.559Z,87.12
2022-12-03T18:57:46.337Z,86.81
2022-12-03T19:00:15.336Z,86.36
2022-12-03T19:03:02.471Z,85.07
2022-12-03T19:05:31.477Z,87.53
2022-12-03T19:07:59.294Z,86.99
2022-12-03T19:10:28.684Z,88.31
2022-12-03T19:12:56.379Z,86.73
2022-12-03T19:15:24.217Z,85.24
2022-12-03T19:17:52.446Z,83.09
2022-12-03T19:20:20.419Z,83.33
2022-12-03T19:22:48.113Z,85.17
2022-12-03T19:25:16.133Z,83.77
2022-12-03T19:27:45.286Z,86.47
2022-12-03T19:30:13.984Z,86.47
2022-12-03T19:32:41.760Z,85.15
2022-12-03T19:35:11.403Z,86.74
2022-12-03T19:37:39.615Z,86.28
2022-12-03T19:40:10.188Z,87.37
2022-12-03T19:42:37.972Z,88.17
2022-12-03T19:45:08.702Z,88.73
2022-12-03T19:47:36.555Z,86.61
2022-12-03T19:50:05.558Z,87.79
2022-12-03T19:52:36.289Z,86.35
2022-12-03T19:55:05.141Z,86.64
2022-12-03T19:57:32.942Z,88.22
2022-12-03T20:00:01.125Z,87.74
2022-12-03T20:02:30.491Z,85.88
2022-12-03T20:04:58.237Z,85.70
2022-12-03T20:07:26.101Z,85.33
2022-12-03T20:09:54.301Z,88.02
2022-12-03T20:12:22.303Z,87.08
2022-12-03T20:14:51.661Z,86.89
2022-12-03T20:17:19.526Z,86.59
2022-12-03T20:19:49.036Z,88.11
2022-12-03T20:22:16.866Z,86.64
2022-12-03T20:24:44.764Z,87.35
2022-12-03T20:27:12.638Z,85.87
2022-12-03T20:29:40.580Z,86.56
2022-12-03T20:32:08.511Z,87.01
2022-12-03T20:34:36.364Z,85.37
2022-12-03T20:37:05.945Z,88.07
2022-12-03T20:39:33.714Z,87.04
2022-12-03T20:42:01.410Z,85.77
2022-12-03T20:44:29.196Z,86.34
2022-12-03T20:46:56.884Z,86.51
2022-12-03T20:49:24.631Z,86.92
2022-12-03T20:51:52.357Z,84.84
2022-12-03T20:54:21.469Z,84.51
2022-12-03T20:56:49.285Z,85.17
2022-12-03T20:59:18.481Z,86.05
2022-12-03T21:01:46.543Z,84.46
2022-12-03T21:04:16.050Z,84.52
2022-12-03T21:06:44.026Z,84.20
2022-12-03T21:09:13.294Z,84.03
2022-12-03T21:11:42.656Z,86.38
2022-12-03T21:14:11.952Z,88.33
2022-12-03T21:19:29.934Z,86.67
2022-12-03T21:21:57.765Z,86.94
2022-12-03T21:24:25.591Z,87.35
2022-12-03T21:26:54.709Z,86.22
2022-12-03T21:29:22.504Z,86.67
2022-12-03T21:31:50.463Z,87.90
2022-12-03T21:34:18.477Z,89.03
2022-12-03T21:36:46.361Z,88.73
2022-12-03T21:39:14.375Z,86.22
2022-12-03T21:42:22.053Z,86.40
2022-12-03T21:44:31.498Z,87.88
2022-12-03T21:47:12.621Z,86.49
2022-12-03T21:49:42.164Z,87.33
2022-12-03T21:52:10.092Z,85.66
2022-12-03T21:54:37.848Z,85.23
2022-12-03T21:57:05.621Z,86.46
2022-12-03T21:59:34.754Z,86.22
2022-12-03T22:02:02.678Z,86.91
2022-12-03T22:04:30.696Z,85.96
2022-12-03T22:06:58.429Z,84.63
2022-12-03T22:09:26.940Z,86.73
2022-12-03T22:11:56.895Z,86.04
2022-12-03T22:14:24.779Z,83.39
2022-12-03T22:16:54.179Z,85.26
2022-12-03T22:19:23.462Z,86.85
2022-12-03T22:21:51.347Z,86.79
2022-12-03T22:24:19.722Z,86.10
2022-12-03T22:26:47.510Z,87.98
2022-12-03T22:29:15.173Z,86.07
2022-12-03T22:31:42.996Z,87.19
2022-12-03T22:34:12.109Z,87.67
2022-12-03T22:36:39.867Z,88.08
2022-12-03T22:39:07.659Z,87.43
2022-12-03T22:41:35.392Z,89.12
2022-12-03T22:44:03.129Z,87.56
2022-12-03T22:46:30.976Z,86.84
2022-12-03T22:49:03.459Z,89.23
2022-12-03T22:51:36.803Z,88.12
2022-12-03T22:54:05.578Z,88.18
2022-12-03T22:56:34.077Z,88.22
2022-12-03T22:59:01.805Z,87.62
2022-12-03T23:01:32.120Z,87.96
2022-12-03T23:04:00.397Z,89.01
2022-12-03T23:06:29.163Z,87.88
2022-12-03T23:08:59.359Z,87.82
2022-12-03T23:11:27.954Z,87.74
2022-12-03T23:13:55.695Z,87.59
2022-12-03T23:16:26.294Z,88.40
2022-12-03T23:18:54.630Z,89.26
2022-12-03T23:21:29.896Z,89.56
2022-12-03T23:23:59.898Z,87.85
2022-12-03T23:26:28.171Z,88.44
2022-12-03T23:28:56.327Z,87.95
2022-12-03T23:31:26.800Z,88.15
2022-12-03T23:33:55.443Z,88.56
2022-12-03T23:36:24.345Z,88.97
2022-12-03T23:38:54.371Z,87.33
2022-12-03T23:41:24.697Z,89.26
2022-12-03T23:43:52.805Z,89.51
2022-12-03T23:46:23.208Z,89.38
2022-12-03T23:48:52.186Z,89.68
2022-12-03T23:51:21.769Z,88.94
2022-12-03T23:53:49.439Z,89.08
2022-12-03T23:56:19.022Z,89.66
2022-12-03T23:58:48.464Z,89.59
